Time;durP1;ratioP1;P1;durP2;ratioP2;P2;SDS_P1;SDS_P2;PMS_P1;PMS_P2;Temp;Humidity;BMP_temperature;BMP_pressure;BME280_temperature;BME280_humidity;BME280_pressure;Samples;Min_cycle;Max_cycle;Signal;HPM_P1;HPM_P2
2023/01/05 00:02:11;;;;;;;0.40;0.10;;;;;;;;;;5070548;28;20207;-66
2023/01/05 00:04:38;;;;;;;0.30;0.30;;;;;;;;;;5064131;28;20224;-66
2023/01/05 00:07:05;;;;;;;0.10;0.10;;;;;;;;;;5059034;28;20203;-66
2023/01/05 00:09:32;;;;;;;0.10;0.10;;;;;;;;;;5059997;28;20597;-66
2023/01/05 00:23:05;;;;;;;0.00;0.00;;;;;;;;;;5013761;28;20207;-66
2023/01/05 00:25:33;;;;;;;0.10;0.10;;;;;;;;;;5069255;28;20223;-65
2023/01/05 00:28:00;;;;;;;0.10;0.10;;;;;;;;;;5065956;28;20894;-66
2023/01/05 00:30:29;;;;;;;0.07;0.07;;;;;;;;;;5066479;28;20204;-66
2023/01/05 00:32:57;;;;;;;0.10;0.10;;;;;;;;;;5053742;28;20200;-65
2023/01/05 00:35:24;;;;;;;0.00;0.00;;;;;;;;;;5052407;28;20208;-66
2023/01/05 00:37:51;;;;;;;0.97;0.40;;;;;;;;;;5052487;28;20851;-66
2023/01/05 00:40:18;;;;;;;0.10;0.10;;;;;;;;;;5051833;28;20204;-65
2023/01/05 00:42:46;;;;;;;1.40;0.40;;;;;;;;;;5051915;28;20666;-66
2023/01/05 00:45:14;;;;;;;0.10;0.10;;;;;;;;;;5051939;28;20231;-66
2023/01/05 00:47:42;;;;;;;0.10;0.10;;;;;;;;;;5051505;28;20200;-66
2023/01/05 00:50:10;;;;;;;0.10;0.10;;;;;;;;;;5051688;28;20207;-65
2023/01/05 00:52:37;;;;;;;0.10;0.10;;;;;;;;;;5051715;28;20685;-66
2023/01/05 00:55:05;;;;;;;0.10;0.10;;;;;;;;;;5051525;28;20203;-66
2023/01/05 00:57:32;;;;;;;0.10;0.10;;;;;;;;;;5051764;28;20211;-65
2023/01/05 01:00:00;;;;;;;0.20;0.20;;;;;;;;;;5054066;28;20584;-66
2023/01/05 01:02:27;;;;;;;0.10;0.10;;;;;;;;;;5056313;28;20203;-66
2023/01/05 01:04:56;;;;;;;0.10;0.10;;;;;;;;;;5055835;28;20220;-65
2023/01/05 01:07:23;;;;;;;0.20;0.20;;;;;;;;;;5063549;28;20338;-66
2023/01/05 01:09:50;;;;;;;0.00;0.00;;;;;;;;;;5063241;28;20236;-66
2023/01/05 01:12:17;;;;;;;0.23;0.17;;;;;;;;;;5070382;28;20203;-66
2023/01/05 01:14:46;;;;;;;0.10;0.10;;;;;;;;;;5070524;28;20591;-66
2023/01/05 01:17:13;;;;;;;0.20;0.10;;;;;;;;;;5065197;28;20258;-65
2023/01/05 01:19:40;;;;;;;0.07;0.07;;;;;;;;;;5066157;28;20203;-66
2023/01/05 01:22:09;;;;;;;0.10;0.10;;;;;;;;;;5061044;28;20214;-65
2023/01/05 01:24:36;;;;;;;0.10;0.10;;;;;;;;;;5069790;28;20222;-66
2023/01/05 01:27:03;;;;;;;0.10;0.10;;;;;;;;;;5055485;28;20550;-65
2023/01/05 01:29:30;;;;;;;0.10;0.10;;;;;;;;;;5052809;28;20294;-65
2023/01/05 01:31:58;;;;;;;0.57;0.20;;;;;;;;;;5064288;28;20199;-66
2023/01/05 01:34:25;;;;;;;2.10;0.20;;;;;;;;;;5052068;28;20203;-65
2023/01/05 01:36:55;;;;;;;0.10;0.10;;;;;;;;;;5051202;28;20650;-65
2023/01/05 01:39:23;;;;;;;0.20;0.20;;;;;;;;;;5068000;28;20360;-65
2023/01/05 01:41:50;;;;;;;0.10;0.10;;;;;;;;;;5064286;28;20598;-66
2023/01/05 01:44:36;;;;;;;0.20;0.20;;;;;;;;;;5057213;28;20698;-65
2023/01/05 01:47:03;;;;;;;0.10;0.10;;;;;;;;;;5062237;28;20685;-66
2023/01/05 01:49:30;;;;;;;0.10;0.10;;;;;;;;;;5054314;28;20784;-66
2023/01/05 01:51:57;;;;;;;0.10;0.10;;;;;;;;;;5063031;28;20207;-66
2023/01/05 01:54:25;;;;;;;0.10;0.10;;;;;;;;;;5055595;28;20207;-66
2023/01/05 01:56:54;;;;;;;0.10;0.10;;;;;;;;;;5051108;28;20302;-65
2023/01/05 01:59:21;;;;;;;0.10;0.10;;;;;;;;;;5050998;28;20208;-66
2023/01/05 02:01:50;;;;;;;0.07;0.07;;;;;;;;;;5050625;28;20317;-65
2023/01/05 02:04:17;;;;;;;0.10;0.10;;;;;;;;;;5053014;28;20216;-65
2023/01/05 02:06:44;;;;;;;0.10;0.10;;;;;;;;;;5052339;28;20294;-66
2023/01/05 02:09:11;;;;;;;0.00;0.00;;;;;;;;;;5053593;28;20234;-65
2023/01/05 02:11:44;;;;;;;0.10;0.10;;;;;;;;;;5058644;28;20211;-65
2023/01/05 02:14:15;;;;;;;0.20;0.10;;;;;;;;;;5053718;28;20268;-66
2023/01/05 02:16:46;;;;;;;0.07;0.07;;;;;;;;;;5068655;28;20280;-66
2023/01/05 02:19:25;;;;;;;1.60;0.10;;;;;;;;;;5070128;28;20211;-66
2023/01/05 02:21:57;;;;;;;0.20;0.10;;;;;;;;;;5050278;28;20199;-65
2023/01/05 02:24:39;;;;;;;0.10;0.10;;;;;;;;;;5049699;28;20208;-66
2023/01/05 02:27:27;;;;;;;0.27;0.10;;;;;;;;;;5050008;28;20204;-68
2023/01/05 02:30:11;;;;;;;0.30;0.30;;;;;;;;;;5050120;28;20628;-66
2023/01/05 02:32:44;;;;;;;0.63;0.10;;;;;;;;;;5049680;28;20599;-66
2023/01/05 02:35:14;;;;;;;0.27;0.00;;;;;;;;;;5050300;28;20616;-65
2023/01/05 02:37:44;;;;;;;2.53;0.13;;;;;;;;;;5065113;28;20578;-65
2023/01/05 02:40:14;;;;;;;0.10;0.10;;;;;;;;;;5056753;28;20703;-65
2023/01/05 02:42:43;;;;;;;2.47;0.23;;;;;;;;;;5055321;28;20260;-65
2023/01/05 02:45:10;;;;;;;2.90;0.50;;;;;;;;;;5058225;28;20231;-65
2023/01/05 02:47:39;;;;;;;1.67;0.17;;;;;;;;;;5049560;28;20231;-66
2023/01/05 02:50:10;;;;;;;0.30;0.30;;;;;;;;;;5050396;28;20262;-66
2023/01/05 02:52:40;;;;;;;2.73;0.23;;;;;;;;;;5052072;28;20203;-65
2023/01/05 02:55:10;;;;;;;2.40;0.27;;;;;;;;;;5055027;28;20196;-66
2023/01/05 02:57:47;;;;;;;0.70;0.20;;;;;;;;;;5053960;28;20282;-66
2023/01/05 03:00:16;;;;;;;3.70;0.30;;;;;;;;;;5069136;28;20226;-66
2023/01/05 03:02:43;;;;;;;0.60;0.27;;;;;;;;;;5054012;28;20208;-66
2023/01/05 03:05:14;;;;;;;1.37;0.40;;;;;;;;;;5052408;28;20599;-66
2023/01/05 03:07:42;;;;;;;1.53;0.27;;;;;;;;;;5068641;28;20306;-65
2023/01/05 03:15:38;;;;;;;0.50;0.20;;;;;;;;;;5051504;28;20720;-66
2023/01/05 03:18:07;;;;;;;1.50;0.47;;;;;;;;;;5051235;28;20257;-66
2023/01/05 03:20:37;;;;;;;4.73;0.20;;;;;;;;;;5066286;28;20204;-66
2023/01/05 03:37:02;;;;;;;0.57;0.30;;;;;;;;;;5050932;28;20207;-66
2023/01/05 03:39:30;;;;;;;6.90;0.60;;;;;;;;;;5059541;28;20203;-66
2023/01/05 03:41:58;;;;;;;0.90;0.27;;;;;;;;;;5064984;28;20207;-66
2023/01/05 03:44:25;;;;;;;4.03;0.57;;;;;;;;;;5055281;28;20199;-66
2023/01/05 03:46:52;;;;;;;0.53;0.30;;;;;;;;;;5058486;28;20232;-66
2023/01/05 03:49:19;;;;;;;4.07;0.97;;;;;;;;;;5057308;28;20574;-66
2023/01/05 03:51:46;;;;;;;2.53;0.30;;;;;;;;;;5063862;28;20210;-66
2023/01/05 03:54:14;;;;;;;1.93;0.40;;;;;;;;;;5053755;28;20795;-66
2023/01/05 03:56:41;;;;;;;0.30;0.30;;;;;;;;;;5066988;28;20299;-65
2023/01/05 03:59:08;;;;;;;1.57;0.50;;;;;;;;;;5068122;28;20203;-65
2023/01/05 04:01:35;;;;;;;3.60;1.67;;;;;;;;;;5057699;28;20264;-66
2023/01/05 04:04:02;;;;;;;3.00;0.53;;;;;;;;;;5067762;28;20253;-66
2023/01/05 04:06:29;;;;;;;5.50;0.40;;;;;;;;;;5055423;28;20277;-66
2023/01/05 04:08:57;;;;;;;1.70;0.30;;;;;;;;;;5065461;28;20647;-66
2023/01/05 04:11:25;;;;;;;2.97;0.53;;;;;;;;;;5058932;28;20210;-66
2023/01/05 04:13:53;;;;;;;2.00;0.53;;;;;;;;;;5065740;28;20280;-66
2023/01/05 04:16:20;;;;;;;4.10;0.83;;;;;;;;;;5058813;28;20260;-66
2023/01/05 04:18:47;;;;;;;3.83;0.57;;;;;;;;;;5056829;28;20203;-66
2023/01/05 04:21:14;;;;;;;3.47;1.10;;;;;;;;;;5062111;28;20329;-66
2023/01/05 04:23:41;;;;;;;3.40;0.33;;;;;;;;;;5066672;28;20265;-66
2023/01/05 04:26:08;;;;;;;3.03;0.67;;;;;;;;;;5067125;28;20226;-66
2023/01/05 04:28:36;;;;;;;1.93;0.50;;;;;;;;;;5064149;28;20254;-66
2023/01/05 04:31:03;;;;;;;6.47;0.47;;;;;;;;;;5060716;28;20211;-65
2023/01/05 04:33:30;;;;;;;0.30;0.30;;;;;;;;;;5048476;28;20204;-65
2023/01/05 04:35:57;;;;;;;0.97;0.80;;;;;;;;;;5048195;28;20226;-65
2023/01/05 04:38:24;;;;;;;2.43;0.40;;;;;;;;;;5060167;28;20203;-65
2023/01/05 04:40:52;;;;;;;1.80;0.40;;;;;;;;;;5047775;28;20665;-66
2023/01/05 04:43:19;;;;;;;6.70;1.17;;;;;;;;;;5051718;28;20199;-64
2023/01/05 04:45:48;;;;;;;5.87;0.70;;;;;;;;;;5051918;28;20228;-66
2023/01/05 04:48:15;;;;;;;4.73;0.67;;;;;;;;;;5052365;28;20270;-66
2023/01/05 04:50:42;;;;;;;1.40;0.30;;;;;;;;;;5053908;28;20200;-66
2023/01/05 04:53:10;;;;;;;0.67;0.33;;;;;;;;;;5053132;28;20207;-65
2023/01/05 04:55:37;;;;;;;1.90;0.60;;;;;;;;;;5061557;28;20231;-65
2023/01/05 04:58:04;;;;;;;7.37;0.77;;;;;;;;;;5070394;28;20206;-66
2023/01/05 05:00:31;;;;;;;4.20;0.80;;;;;;;;;;5055723;28;20199;-66
2023/01/05 05:03:01;;;;;;;3.30;0.30;;;;;;;;;;5056514;28;20295;-65
2023/01/05 05:05:28;;;;;;;3.10;1.00;;;;;;;;;;5066332;28;20238;-65
2023/01/05 05:07:55;;;;;;;4.20;0.77;;;;;;;;;;5065791;28;20199;-66
2023/01/05 05:10:22;;;;;;;3.73;0.70;;;;;;;;;;5064653;28;20243;-65
2023/01/05 05:12:49;;;;;;;3.40;0.50;;;;;;;;;;5065427;28;20666;-66
2023/01/05 05:15:16;;;;;;;4.90;0.43;;;;;;;;;;5051726;28;20261;-65
2023/01/05 05:17:43;;;;;;;3.77;0.50;;;;;;;;;;5062161;28;20762;-65
2023/01/05 05:20:11;;;;;;;3.37;0.70;;;;;;;;;;5071423;28;20206;-65
2023/01/05 05:22:38;;;;;;;3.40;0.67;;;;;;;;;;5053920;28;20208;-66
2023/01/05 05:25:06;;;;;;;2.00;0.43;;;;;;;;;;5051780;28;20219;-65
2023/01/05 05:27:33;;;;;;;5.93;0.83;;;;;;;;;;5064673;28;20210;-66
2023/01/05 05:30:00;;;;;;;1.90;0.77;;;;;;;;;;5066429;28;20611;-66
2023/01/05 05:32:27;;;;;;;3.50;0.43;;;;;;;;;;5055989;28;20219;-66
2023/01/05 05:34:54;;;;;;;2.33;0.40;;;;;;;;;;5055649;28;20218;-66
2023/01/05 05:37:22;;;;;;;2.77;0.37;;;;;;;;;;5064513;28;20211;-65
2023/01/05 05:39:49;;;;;;;7.17;0.80;;;;;;;;;;5059361;28;20199;-65
2023/01/05 05:42:16;;;;;;;0.73;0.43;;;;;;;;;;5060969;28;20628;-65
2023/01/05 05:44:43;;;;;;;1.90;0.60;;;;;;;;;;5060597;28;20203;-66
2023/01/05 05:47:10;;;;;;;9.63;0.80;;;;;;;;;;5066769;28;20573;-65
2023/01/05 05:49:37;;;;;;;5.13;0.80;;;;;;;;;;5053675;28;20208;-65
2023/01/05 05:52:05;;;;;;;4.70;0.97;;;;;;;;;;5055020;28;20214;-65
2023/01/05 05:54:33;;;;;;;0.47;0.40;;;;;;;;;;5049658;28;20206;-65
2023/01/05 05:57:00;;;;;;;0.67;0.50;;;;;;;;;;5064066;28;20277;-66
2023/01/05 05:59:27;;;;;;;0.30;0.27;;;;;;;;;;5070368;28;20597;-65
2023/01/05 06:01:54;;;;;;;3.80;0.90;;;;;;;;;;5061739;28;20242;-65
2023/01/05 06:04:21;;;;;;;2.20;0.60;;;;;;;;;;5068984;28;20755;-65
2023/01/05 06:06:48;;;;;;;4.33;1.00;;;;;;;;;;5054765;28;20697;-65
2023/01/05 06:09:15;;;;;;;3.07;0.60;;;;;;;;;;5059918;28;20713;-65
2023/01/05 06:11:44;;;;;;;3.80;0.47;;;;;;;;;;5063892;28;20196;-66
2023/01/05 06:14:11;;;;;;;4.07;0.67;;;;;;;;;;5056806;28;20279;-66
2023/01/05 06:16:38;;;;;;;0.53;0.30;;;;;;;;;;5068103;28;20203;-66
2023/01/05 06:19:05;;;;;;;2.07;0.50;;;;;;;;;;5068612;28;22044;-65
2023/01/05 06:21:32;;;;;;;5.03;0.80;;;;;;;;;;5068425;28;20203;-65
2023/01/05 06:23:59;;;;;;;0.80;0.30;;;;;;;;;;5067962;28;20215;-65
2023/01/05 06:26:26;;;;;;;5.47;0.50;;;;;;;;;;5056680;28;20227;-65
2023/01/05 06:28:54;;;;;;;4.87;0.70;;;;;;;;;;5054843;28;20207;-66
2023/01/05 06:31:21;;;;;;;2.03;0.60;;;;;;;;;;5065949;28;20250;-65
2023/01/05 06:33:48;;;;;;;3.30;0.57;;;;;;;;;;5054625;28;20199;-66
2023/01/05 06:36:15;;;;;;;5.50;1.27;;;;;;;;;;5054706;28;20654;-65
2023/01/05 06:38:42;;;;;;;3.37;0.77;;;;;;;;;;5062056;28;20218;-65
2023/01/05 06:41:09;;;;;;;4.47;0.50;;;;;;;;;;5063414;28;20204;-65
2023/01/05 06:43:37;;;;;;;8.40;0.57;;;;;;;;;;5064580;28;20214;-65
2023/01/05 06:46:05;;;;;;;8.37;0.80;;;;;;;;;;5056435;28;20251;-65
2023/01/05 06:48:32;;;;;;;1.40;0.17;;;;;;;;;;5059006;28;20204;-66
2023/01/05 06:50:59;;;;;;;3.83;0.53;;;;;;;;;;5052289;28;20206;-66
2023/01/05 06:53:26;;;;;;;4.17;0.80;;;;;;;;;;5052784;28;20200;-65
2023/01/05 06:55:53;;;;;;;2.10;0.50;;;;;;;;;;5065784;28;20264;-66
2023/01/05 06:58:20;;;;;;;2.63;0.20;;;;;;;;;;5067476;28;20214;-66
2023/01/05 07:00:47;;;;;;;1.80;0.40;;;;;;;;;;5048884;28;20214;-65
2023/01/05 07:03:15;;;;;;;0.77;0.40;;;;;;;;;;5049397;28;20594;-65
2023/01/05 07:05:42;;;;;;;1.03;0.30;;;;;;;;;;5048520;28;20199;-65
2023/01/05 07:08:09;;;;;;;2.57;0.50;;;;;;;;;;5054769;28;20203;-65
2023/01/05 07:10:36;;;;;;;1.67;0.90;;;;;;;;;;5050716;28;20235;-66
2023/01/05 07:13:03;;;;;;;4.33;1.17;;;;;;;;;;5050713;28;20409;-67
2023/01/05 07:15:30;;;;;;;2.37;0.73;;;;;;;;;;5060703;28;20207;-67
2023/01/05 07:17:57;;;;;;;0.53;0.30;;;;;;;;;;5067884;28;20685;-66
2023/01/05 07:20:26;;;;;;;1.97;0.40;;;;;;;;;;5067854;28;20199;-66
2023/01/05 07:22:53;;;;;;;1.50;0.40;;;;;;;;;;5067153;28;20207;-66
2023/01/05 07:25:20;;;;;;;1.93;0.57;;;;;;;;;;5059617;28;20665;-66
2023/01/05 07:27:51;;;;;;;4.23;0.40;;;;;;;;;;5062219;28;20235;-66
2023/01/05 07:30:18;;;;;;;3.53;0.63;;;;;;;;;;5050349;28;20224;-66
2023/01/05 07:32:45;;;;;;;1.80;0.23;;;;;;;;;;5056615;28;20194;-67
2023/01/05 07:35:12;;;;;;;0.70;0.50;;;;;;;;;;5061731;28;20659;-66
2023/01/05 07:37:42;;;;;;;3.47;0.50;;;;;;;;;;5057790;28;20195;-67
2023/01/05 07:40:09;;;;;;;2.20;0.20;;;;;;;;;;5055204;28;20230;-66
2023/01/05 07:42:36;;;;;;;3.03;0.20;;;;;;;;;;5066082;28;20195;-65
2023/01/05 07:45:04;;;;;;;0.43;0.43;;;;;;;;;;5054340;28;20690;-66
2023/01/05 07:47:31;;;;;;;2.73;0.83;;;;;;;;;;5057470;28;20226;-65
2023/01/05 07:49:58;;;;;;;1.70;0.50;;;;;;;;;;5059507;28;20198;-65
2023/01/05 07:52:25;;;;;;;0.40;0.20;;;;;;;;;;5065319;28;20637;-65
2023/01/05 07:54:53;;;;;;;1.30;0.33;;;;;;;;;;5057981;28;20204;-65
2023/01/05 07:57:20;;;;;;;1.47;0.70;;;;;;;;;;5048410;28;20228;-65
2023/01/05 07:59:47;;;;;;;1.60;0.40;;;;;;;;;;5049321;28;20219;-65
2023/01/05 08:02:14;;;;;;;1.07;0.50;;;;;;;;;;5048749;28;20668;-65
2023/01/05 08:04:41;;;;;;;1.30;0.60;;;;;;;;;;5062111;28;20219;-65
2023/01/05 08:07:10;;;;;;;1.83;0.37;;;;;;;;;;5050980;28;20618;-66
2023/01/05 08:12:23;;;;;;;1.40;0.40;;;;;;;;;;5059824;28;20206;-65
2023/01/05 08:14:50;;;;;;;3.20;0.57;;;;;;;;;;5054430;28;20203;-66
2023/01/05 08:17:17;;;;;;;0.50;0.30;;;;;;;;;;5061978;28;20215;-68
2023/01/05 08:19:44;;;;;;;2.00;0.20;;;;;;;;;;5056832;28;20207;-65
2023/01/05 08:22:11;;;;;;;2.27;0.50;;;;;;;;;;5058341;28;20204;-64
2023/01/05 08:24:38;;;;;;;2.43;0.30;;;;;;;;;;5069640;28;20207;-65
2023/01/05 08:27:05;;;;;;;3.60;0.53;;;;;;;;;;5067606;28;20756;-65
2023/01/05 08:29:33;;;;;;;3.53;0.63;;;;;;;;;;5072361;28;20218;-66
2023/01/05 08:32:00;;;;;;;1.43;0.50;;;;;;;;;;5070234;28;20210;-65
2023/01/05 08:34:27;;;;;;;4.10;0.60;;;;;;;;;;5072348;28;20214;-65
2023/01/05 08:36:54;;;;;;;3.87;0.50;;;;;;;;;;5072051;28;20693;-65
2023/01/05 08:39:21;;;;;;;4.23;0.80;;;;;;;;;;5072860;28;20214;-64
2023/01/05 08:41:48;;;;;;;8.47;0.70;;;;;;;;;;5066725;28;20261;-65
2023/01/05 08:44:15;;;;;;;3.53;0.63;;;;;;;;;;5060682;28;20219;-65
2023/01/05 08:46:44;;;;;;;3.57;0.70;;;;;;;;;;5053841;28;20224;-65
2023/01/05 08:49:11;;;;;;;5.60;0.70;;;;;;;;;;5052634;28;20212;-67
2023/01/05 08:51:38;;;;;;;4.43;0.40;;;;;;;;;;5070387;28;20207;-65
2023/01/05 08:54:05;;;;;;;4.47;0.80;;;;;;;;;;5069079;28;20281;-65
2023/01/05 08:56:32;;;;;;;4.30;0.43;;;;;;;;;;5056691;28;20270;-65
2023/01/05 08:58:59;;;;;;;3.37;0.63;;;;;;;;;;5061879;28;20203;-66
2023/01/05 09:01:27;;;;;;;2.67;0.53;;;;;;;;;;5054087;28;20665;-65
2023/01/05 09:03:55;;;;;;;4.27;0.77;;;;;;;;;;5066177;28;20207;-64
2023/01/05 09:06:22;;;;;;;3.43;0.80;;;;;;;;;;5072002;28;20674;-67
2023/01/05 09:08:49;;;;;;;0.87;0.50;;;;;;;;;;5060097;28;20207;-65
2023/01/05 09:11:18;;;;;;;2.00;0.63;;;;;;;;;;5052315;28;20204;-65
2023/01/05 09:13:46;;;;;;;1.20;0.70;;;;;;;;;;5051915;28;20210;-67
2023/01/05 09:16:14;;;;;;;4.13;0.93;;;;;;;;;;5060964;28;20242;-65
2023/01/05 09:18:42;;;;;;;3.17;1.20;;;;;;;;;;5060945;28;20227;-65
2023/01/05 09:21:10;;;;;;;5.73;1.40;;;;;;;;;;5052250;28;21000;-65
2023/01/05 09:23:38;;;;;;;3.07;0.77;;;;;;;;;;5059111;28;20551;-61
2023/01/05 09:26:06;;;;;;;3.93;1.17;;;;;;;;;;5067317;28;20217;-68
2023/01/05 09:28:35;;;;;;;1.00;0.57;;;;;;;;;;5070047;28;20740;-66
2023/01/05 09:31:06;;;;;;;3.30;0.80;;;;;;;;;;5060029;28;20203;-66
2023/01/05 09:33:33;;;;;;;4.33;0.53;;;;;;;;;;5061845;28;20207;-65
2023/01/05 09:36:00;;;;;;;4.30;0.90;;;;;;;;;;5067968;28;20195;-64
2023/01/05 09:38:29;;;;;;;2.00;0.60;;;;;;;;;;5055769;28;20210;-66
2023/01/05 09:40:59;;;;;;;1.40;0.53;;;;;;;;;;5061019;28;20672;-65
2023/01/05 09:43:27;;;;;;;2.93;0.40;;;;;;;;;;5063645;28;20203;-67
2023/01/05 09:45:55;;;;;;;0.50;0.40;;;;;;;;;;5057908;28;20219;-64
2023/01/05 09:48:22;;;;;;;1.70;0.57;;;;;;;;;;5059762;28;20867;-65
2023/01/05 09:50:50;;;;;;;1.00;0.60;;;;;;;;;;5070753;28;20254;-65
2023/01/05 09:53:19;;;;;;;2.90;0.80;;;;;;;;;;5053840;28;20215;-65
2023/01/05 09:55:49;;;;;;;2.10;1.03;;;;;;;;;;5051995;28;20364;-66
2023/01/05 09:58:16;;;;;;;1.93;0.57;;;;;;;;;;5067341;28;20202;-66
2023/01/05 10:00:45;;;;;;;1.10;0.50;;;;;;;;;;5064976;28;20633;-64
2023/01/05 10:03:14;;;;;;;2.40;0.70;;;;;;;;;;5067424;28;20219;-66
2023/01/05 10:05:42;;;;;;;2.13;0.60;;;;;;;;;;5070546;28;20210;-65
2023/01/05 10:08:15;;;;;;;3.20;0.37;;;;;;;;;;5064208;28;20227;-65
2023/01/05 10:10:45;;;;;;;4.70;0.63;;;;;;;;;;5069114;28;20243;-65
2023/01/05 10:13:19;;;;;;;3.90;0.80;;;;;;;;;;5065769;28;20208;-66
2023/01/05 10:15:49;;;;;;;0.83;0.60;;;;;;;;;;5057440;28;20566;-66
2023/01/05 10:18:18;;;;;;;5.47;1.60;;;;;;;;;;5068345;28;20220;-61
2023/01/05 10:20:58;;;;;;;3.20;1.27;;;;;;;;;;5059318;28;20291;-65
2023/01/05 10:23:35;;;;;;;4.70;1.23;;;;;;;;;;5056320;28;20265;-63
2023/01/05 10:26:05;;;;;;;4.70;1.83;;;;;;;;;;5067205;28;20207;-64
2023/01/05 10:28:38;;;;;;;3.53;0.90;;;;;;;;;;5066571;28;20227;-63
2023/01/05 10:31:09;;;;;;;2.97;0.70;;;;;;;;;;5051658;28;20218;-63
2023/01/05 10:33:42;;;;;;;4.60;1.20;;;;;;;;;;5066670;28;20260;-65
2023/01/05 10:36:16;;;;;;;4.00;1.00;;;;;;;;;;5068451;28;20223;-65
2023/01/05 10:38:48;;;;;;;6.27;1.13;;;;;;;;;;5064972;28;20204;-65
2023/01/05 10:41:18;;;;;;;3.07;1.37;;;;;;;;;;5049958;28;20207;-64
2023/01/05 10:44:04;;;;;;;4.77;0.80;;;;;;;;;;5054970;28;20219;-68
2023/01/05 10:46:31;;;;;;;3.50;1.10;;;;;;;;;;5055486;28;20199;-65
2023/01/05 10:48:59;;;;;;;3.67;0.90;;;;;;;;;;5068035;28;20230;-65
2023/01/05 10:51:26;;;;;;;6.97;1.23;;;;;;;;;;5059031;28;20207;-64
2023/01/05 10:53:53;;;;;;;4.97;0.70;;;;;;;;;;5055474;28;20876;-64
2023/01/05 10:56:24;;;;;;;5.17;0.93;;;;;;;;;;5062123;28;20226;-63
2023/01/05 10:59:07;;;;;;;3.77;1.40;;;;;;;;;;5061355;28;20203;-62
2023/01/05 11:01:36;;;;;;;0.67;0.67;;;;;;;;;;5062420;28;20276;-64
2023/01/05 11:04:05;;;;;;;1.10;0.67;;;;;;;;;;5051236;28;20605;-64
2023/01/05 11:06:34;;;;;;;9.13;1.17;;;;;;;;;;5068512;28;20218;-63
2023/01/05 11:09:12;;;;;;;6.23;1.13;;;;;;;;;;5058266;28;20235;-64
2023/01/05 11:11:40;;;;;;;2.07;1.10;;;;;;;;;;5048700;28;20286;-65
2023/01/05 11:14:07;;;;;;;4.43;1.20;;;;;;;;;;5060269;28;20203;-63
2023/01/05 11:16:37;;;;;;;3.77;0.77;;;;;;;;;;5056580;28;20231;-66
2023/01/05 11:19:06;;;;;;;7.27;2.10;;;;;;;;;;5061112;28;20601;-66
2023/01/05 11:21:43;;;;;;;3.23;0.87;;;;;;;;;;5047649;28;20213;-66
2023/01/05 11:24:26;;;;;;;6.07;0.93;;;;;;;;;;5062599;28;20210;-65
2023/01/05 11:26:54;;;;;;;2.97;1.20;;;;;;;;;;5067983;28;20218;-65
2023/01/05 11:29:21;;;;;;;4.07;1.30;;;;;;;;;;5066349;28;20771;-65
2023/01/05 11:31:52;;;;;;;7.90;1.30;;;;;;;;;;5068925;28;20214;-66
2023/01/05 11:34:27;;;;;;;3.40;2.13;;;;;;;;;;5068498;28;20210;-65
2023/01/05 11:36:55;;;;;;;2.70;1.47;;;;;;;;;;5068379;28;20700;-65
2023/01/05 11:39:26;;;;;;;6.33;1.47;;;;;;;;;;5068394;28;20669;-65
2023/01/05 11:41:54;;;;;;;1.80;0.70;;;;;;;;;;5068495;28;20238;-66
2023/01/05 11:44:23;;;;;;;7.83;0.80;;;;;;;;;;5068550;28;20214;-66
2023/01/05 11:46:51;;;;;;;3.20;0.93;;;;;;;;;;5068140;28;20207;-66
2023/01/05 11:49:19;;;;;;;4.83;0.93;;;;;;;;;;5067840;28;20509;-65
2023/01/05 11:51:46;;;;;;;3.60;0.87;;;;;;;;;;5071682;28;20719;-65
2023/01/05 11:54:33;;;;;;;5.60;1.00;;;;;;;;;;5071448;28;20203;-66
2023/01/05 11:57:14;;;;;;;3.57;0.50;;;;;;;;;;5071839;28;20250;-65
2023/01/05 11:59:41;;;;;;;5.83;0.70;;;;;;;;;;5071739;28;20219;-66
2023/01/05 12:02:23;;;;;;;2.10;0.80;;;;;;;;;;5072220;28;20207;-65
2023/01/05 12:04:55;;;;;;;4.80;0.90;;;;;;;;;;5071969;28;20207;-65
2023/01/05 12:07:28;;;;;;;1.97;1.07;;;;;;;;;;5072022;28;20207;-66
2023/01/05 12:09:59;;;;;;;5.10;1.07;;;;;;;;;;5071685;28;20739;-66
2023/01/05 12:12:32;;;;;;;2.77;1.20;;;;;;;;;;5072154;28;20260;-66
2023/01/05 12:15:17;;;;;;;3.23;1.27;;;;;;;;;;5071763;28;20222;-66
2023/01/05 12:17:54;;;;;;;4.70;1.00;;;;;;;;;;5072096;28;20202;-65
2023/01/05 12:20:33;;;;;;;3.07;0.80;;;;;;;;;;5072031;28;20214;-65
2023/01/05 12:23:09;;;;;;;5.30;0.90;;;;;;;;;;5071602;28;20222;-65
2023/01/05 12:25:42;;;;;;;4.93;0.77;;;;;;;;;;5052271;28;20216;-66
2023/01/05 12:28:37;;;;;;;1.17;0.90;;;;;;;;;;5052122;28;20230;-66
2023/01/05 12:31:10;;;;;;;5.40;1.00;;;;;;;;;;5051442;28;20218;-63
2023/01/05 12:33:52;;;;;;;3.67;1.00;;;;;;;;;;5051921;28;20212;-64
2023/01/05 12:36:28;;;;;;;2.13;0.80;;;;;;;;;;5049950;28;20215;-64
2023/01/05 12:39:03;;;;;;;10.13;0.90;;;;;;;;;;5051862;28;20211;-64
2023/01/05 12:41:38;;;;;;;2.50;1.13;;;;;;;;;;5051490;28;20710;-64
2023/01/05 12:44:21;;;;;;;1.73;0.73;;;;;;;;;;5051687;28;20215;-65
2023/01/05 12:46:54;;;;;;;5.93;1.13;;;;;;;;;;5051628;28;20200;-64
2023/01/05 12:49:24;;;;;;;1.97;0.50;;;;;;;;;;5051217;28;20242;-64
2023/01/05 12:51:55;;;;;;;5.00;0.80;;;;;;;;;;5051333;28;20207;-64
2023/01/05 12:54:27;;;;;;;3.20;0.55;;;;;;;;;;5051282;28;20210;-65
2023/01/05 12:56:56;;;;;;;2.22;0.52;;;;;;;;;;5059359;28;20226;-65
2023/01/05 12:59:27;;;;;;;2.30;0.80;;;;;;;;;;5070783;28;20203;-65
2023/01/05 13:01:57;;;;;;;5.60;0.50;;;;;;;;;;5069902;28;20230;-65
2023/01/05 13:04:33;;;;;;;8.80;1.73;;;;;;;;;;5070990;28;20214;-65
2023/01/05 13:07:02;;;;;;;4.60;1.05;;;;;;;;;;5070986;28;20207;-65
2023/01/05 13:09:31;;;;;;;2.90;1.10;;;;;;;;;;5070185;28;20243;-65
2023/01/05 13:12:01;;;;;;;5.03;0.70;;;;;;;;;;5071060;28;20674;-67
2023/01/05 13:14:30;;;;;;;5.60;0.70;;;;;;;;;;5070983;28;20214;-64
2023/01/05 13:16:59;;;;;;;2.20;0.70;;;;;;;;;;5071167;28;20211;-64
2023/01/05 13:19:29;;;;;;;5.67;1.00;;;;;;;;;;5071055;28;20221;-64
2023/01/05 13:21:57;;;;;;;5.27;1.23;;;;;;;;;;5065313;28;20199;-63
2023/01/05 13:24:29;;;;;;;3.60;1.23;;;;;;;;;;5048936;28;20208;-64
2023/01/05 13:27:04;;;;;;;4.03;0.70;;;;;;;;;;5068257;28;20576;-64
2023/01/05 13:29:34;;;;;;;4.15;1.10;;;;;;;;;;5056568;28;20229;-64
2023/01/05 13:32:06;;;;;;;3.90;0.70;;;;;;;;;;5054140;28;20215;-64
2023/01/05 13:34:40;;;;;;;5.83;0.53;;;;;;;;;;5054723;28;20691;-64
2023/01/05 13:37:17;;;;;;;2.67;0.87;;;;;;;;;;5050476;28;20210;-65
2023/01/05 13:39:55;;;;;;;1.60;0.70;;;;;;;;;;5051856;28;20199;-65
2023/01/05 13:42:38;;;;;;;3.08;1.10;;;;;;;;;;5050626;28;20211;-65
2023/01/05 13:45:22;;;;;;;4.07;0.50;;;;;;;;;;5054952;28;20214;-63
2023/01/05 13:47:59;;;;;;;4.50;1.10;;;;;;;;;;5057027;28;20722;-64
2023/01/05 13:50:37;;;;;;;4.63;1.03;;;;;;;;;;5070564;28;20248;-64
2023/01/05 13:53:07;;;;;;;0.83;0.70;;;;;;;;;;5056260;28;20208;-64
2023/01/05 13:55:38;;;;;;;3.47;0.63;;;;;;;;;;5050508;28;20223;-64
2023/01/05 13:58:06;;;;;;;5.67;1.00;;;;;;;;;;5062924;28;20669;-64
2023/01/05 14:00:35;;;;;;;5.97;0.70;;;;;;;;;;5068347;28;20695;-63
2023/01/05 14:03:06;;;;;;;5.40;1.13;;;;;;;;;;5056962;28;20199;-63
2023/01/05 14:05:34;;;;;;;2.83;0.40;;;;;;;;;;5070556;28;20260;-62
2023/01/05 14:08:03;;;;;;;4.67;0.87;;;;;;;;;;5056313;28;20212;-64
2023/01/05 14:10:31;;;;;;;3.10;0.70;;;;;;;;;;5051016;28;20502;-64
2023/01/05 14:13:00;;;;;;;4.20;0.97;;;;;;;;;;5060539;28;20199;-64
2023/01/05 14:15:29;;;;;;;1.00;0.60;;;;;;;;;;5069393;28;20195;-62
2023/01/05 14:18:00;;;;;;;2.67;0.97;;;;;;;;;;5053007;28;20210;-63
2023/01/05 14:20:39;;;;;;;1.63;0.80;;;;;;;;;;5050542;28;20591;-63
2023/01/05 14:23:21;;;;;;;7.37;1.00;;;;;;;;;;5059024;28;20201;-64
2023/01/05 14:25:51;;;;;;;5.33;0.90;;;;;;;;;;5069997;28;20214;-63
2023/01/05 14:28:21;;;;;;;2.73;0.77;;;;;;;;;;5070218;28;20219;-66
2023/01/05 14:30:49;;;;;;;4.77;0.90;;;;;;;;;;5066601;28;20208;-65
2023/01/05 14:33:18;;;;;;;2.10;0.83;;;;;;;;;;5060621;28;20203;-65
2023/01/05 14:35:45;;;;;;;3.97;0.90;;;;;;;;;;5065457;28;20229;-65
2023/01/05 14:38:16;;;;;;;3.80;0.77;;;;;;;;;;5067391;28;20260;-64
2023/01/05 14:40:44;;;;;;;3.67;1.23;;;;;;;;;;5067064;28;20262;-64
2023/01/05 14:43:24;;;;;;;4.00;1.07;;;;;;;;;;5060658;28;20207;-65
2023/01/05 14:46:00;;;;;;;6.60;1.23;;;;;;;;;;5059886;28;20206;-65
2023/01/05 14:48:29;;;;;;;4.53;1.23;;;;;;;;;;5060368;28;20971;-65
2023/01/05 14:51:08;;;;;;;4.33;1.00;;;;;;;;;;5051279;28;20200;-65
2023/01/05 14:53:42;;;;;;;5.30;0.87;;;;;;;;;;5057521;28;20207;-63
2023/01/05 14:56:20;;;;;;;6.10;0.53;;;;;;;;;;5061500;28;20383;-64
2023/01/05 14:58:55;;;;;;;7.93;1.17;;;;;;;;;;5062433;28;20199;-65
2023/01/05 15:01:26;;;;;;;1.37;0.80;;;;;;;;;;5058963;28;20234;-61
2023/01/05 15:03:54;;;;;;;5.07;1.00;;;;;;;;;;5067619;28;20695;-66
2023/01/05 15:06:25;;;;;;;4.53;1.27;;;;;;;;;;5056662;28;20207;-65
2023/01/05 15:09:17;;;;;;;4.27;1.20;;;;;;;;;;5064774;28;20316;-64
2023/01/05 15:11:51;;;;;;;1.70;0.67;;;;;;;;;;5050797;28;20208;-64
2023/01/05 15:14:34;;;;;;;4.10;1.30;;;;;;;;;;5063953;28;20230;-64
2023/01/05 15:17:20;;;;;;;2.50;1.37;;;;;;;;;;5060291;28;20259;-64
2023/01/05 15:20:03;;;;;;;2.87;1.07;;;;;;;;;;5059718;28;20673;-64
2023/01/05 15:22:40;;;;;;;3.97;1.73;;;;;;;;;;5059077;28;20268;-64
2023/01/05 15:25:25;;;;;;;2.47;0.90;;;;;;;;;;5055417;28;20557;-64
2023/01/05 15:27:56;;;;;;;2.53;1.37;;;;;;;;;;5060109;28;20260;-64
2023/01/05 15:30:37;;;;;;;5.17;1.30;;;;;;;;;;5065324;28;20227;-63
2023/01/05 15:33:08;;;;;;;6.03;1.37;;;;;;;;;;5064880;28;20203;-64